Time;durP1;ratioP1;P1;durP2;ratioP2;P2;SDS_P1;SDS_P2;PMS_P1;PMS_P2;Temp;Humidity;BMP_temperature;BMP_pressure;BME280_temperature;BME280_humidity;BME280_pressure;Samples;Min_cycle;Max_cycle;Signal;HPM_P1;HPM_P2
2021/09/02 00:01:13;;;;;;;10.20;9.20;;;16.10;99.90;;;;;;5057238;28;20839;-72
2021/09/02 00:03:41;;;;;;;10.43;9.30;;;16.10;99.90;;;;;;5057756;28;20454;-72
2021/09/02 00:06:08;;;;;;;9.33;7.90;;;16.20;99.90;;;;;;5057519;28;20459;-72
2021/09/02 00:08:34;;;;;;;9.77;8.73;;;16.10;99.90;;;;;;5056988;28;20476;-73
2021/09/02 00:11:01;;;;;;;10.03;9.00;;;16.20;99.90;;;;;;5056909;28;20482;-72
2021/09/02 00:13:28;;;;;;;9.57;8.10;;;16.20;99.90;;;;;;5057131;28;20455;-73
2021/09/02 00:15:54;;;;;;;10.50;8.30;;;16.20;99.90;;;;;;5056911;28;20928;-73
2021/09/02 00:18:21;;;;;;;9.43;8.30;;;16.30;99.90;;;;;;5056885;28;20462;-73
2021/09/02 00:20:49;;;;;;;9.70;8.37;;;16.30;99.90;;;;;;5056883;28;20516;-72
2021/09/02 00:23:16;;;;;;;12.00;8.43;;;16.30;99.90;;;;;;5056624;28;20916;-72
2021/09/02 00:25:43;;;;;;;9.13;8.00;;;16.40;99.90;;;;;;5056695;28;20570;-72
2021/09/02 00:28:09;;;;;;;11.37;8.90;;;16.40;99.90;;;;;;5056782;28;20482;-72
2021/09/02 00:30:36;;;;;;;11.87;9.50;;;16.40;99.90;;;;;;5056851;28;20466;-72
2021/09/02 00:33:03;;;;;;;10.60;8.80;;;16.40;99.90;;;;;;5057371;28;20477;-72
2021/09/02 00:35:30;;;;;;;9.33;8.43;;;16.40;99.90;;;;;;5057317;28;20538;-73
2021/09/02 00:37:58;;;;;;;10.43;8.90;;;16.40;99.90;;;;;;5059103;28;20459;-73
2021/09/02 00:40:25;;;;;;;9.47;8.50;;;16.40;99.90;;;;;;5059688;28;20463;-73
2021/09/02 00:42:52;;;;;;;9.23;8.30;;;16.40;99.90;;;;;;5060903;28;20522;-73
2021/09/02 00:45:18;;;;;;;15.07;8.27;;;16.40;99.90;;;;;;5060455;28;20897;-73
2021/09/02 00:47:45;;;;;;;13.43;8.67;;;16.40;99.90;;;;;;5057939;28;20497;-73
2021/09/02 00:50:12;;;;;;;9.47;7.97;;;16.40;99.90;;;;;;5057100;28;20455;-73
2021/09/02 00:52:39;;;;;;;9.40;8.50;;;16.40;99.90;;;;;;5057328;28;20459;-73
2021/09/02 00:55:08;;;;;;;9.77;8.30;;;16.40;99.90;;;;;;5058006;28;20466;-73
2021/09/02 00:57:36;;;;;;;11.43;9.07;;;16.40;99.90;;;;;;5060774;28;20451;-73
2021/09/02 01:00:07;;;;;;;10.60;9.10;;;16.40;99.90;;;;;;5059230;28;20455;-73
2021/09/02 01:02:33;;;;;;;11.80;8.30;;;16.30;99.90;;;;;;5057167;28;20439;-72
2021/09/02 01:05:00;;;;;;;11.77;9.13;;;16.30;99.90;;;;;;5056873;28;20459;-72
2021/09/02 01:07:29;;;;;;;10.43;7.90;;;16.30;99.90;;;;;;5056778;28;20490;-72
2021/09/02 01:09:57;;;;;;;8.80;8.00;;;16.20;99.90;;;;;;5056315;28;20459;-72
2021/09/02 01:12:30;;;;;;;10.13;8.00;;;16.20;99.90;;;;;;5056431;28;20459;-74
2021/09/02 01:14:58;;;;;;;8.53;7.60;;;16.10;99.90;;;;;;5056588;28;20459;-73
2021/09/02 01:17:25;;;;;;;8.27;7.47;;;16.00;99.90;;;;;;5056232;28;20463;-73
2021/09/02 01:19:55;;;;;;;10.60;7.97;;;16.00;99.90;;;;;;5055914;28;20863;-71
2021/09/02 01:22:24;;;;;;;10.30;7.40;;;16.00;99.90;;;;;;5057098;28;20451;-74
2021/09/02 01:24:54;;;;;;;12.00;8.03;;;15.90;99.90;;;;;;5059342;28;20454;-73
2021/09/02 01:27:26;;;;;;;8.93;7.80;;;15.90;99.90;;;;;;5056444;28;20528;-73
2021/09/02 01:29:54;;;;;;;10.20;7.63;;;15.90;99.90;;;;;;5055876;28;20439;-73
2021/09/02 01:32:23;;;;;;;8.50;7.60;;;15.90;99.90;;;;;;5057878;28;20455;-72
2021/09/02 01:34:54;;;;;;;10.43;8.30;;;15.90;99.90;;;;;;5059122;28;20823;-73
2021/09/02 01:37:23;;;;;;;9.80;8.27;;;15.90;99.90;;;;;;5058073;28;20447;-72
2021/09/02 01:39:53;;;;;;;9.17;7.73;;;15.90;99.90;;;;;;5057722;28;20455;-73
2021/09/02 01:42:23;;;;;;;10.93;8.37;;;15.90;99.90;;;;;;5057745;28;20458;-72
2021/09/02 01:44:51;;;;;;;12.23;7.97;;;16.00;99.90;;;;;;5057600;28;20436;-72
2021/09/02 01:47:26;;;;;;;10.00;8.30;;;15.90;99.90;;;;;;5057090;28;20483;-72
2021/09/02 01:49:55;;;;;;;8.30;7.10;;;16.00;99.90;;;;;;5057711;28;20470;-72
2021/09/02 01:52:23;;;;;;;9.53;7.53;;;16.00;99.90;;;;;;5056887;28;20935;-72
2021/09/02 01:54:50;;;;;;;11.53;8.30;;;16.00;99.90;;;;;;5056999;28;20470;-73
2021/09/02 01:57:19;;;;;;;12.27;9.37;;;16.00;99.90;;;;;;5058436;28;20461;-71
2021/09/02 01:59:46;;;;;;;11.13;8.00;;;15.90;99.90;;;;;;5056862;28;20455;-72
2021/09/02 02:02:13;;;;;;;9.07;8.10;;;15.90;99.90;;;;;;5058149;28;20864;-72
2021/09/02 02:04:41;;;;;;;10.10;8.50;;;15.90;99.90;;;;;;5058563;28;20447;-72
2021/09/02 02:07:07;;;;;;;8.97;7.70;;;15.90;99.90;;;;;;5059949;28;20475;-72
2021/09/02 02:09:35;;;;;;;9.03;7.80;;;15.90;99.90;;;;;;5059912;28;20537;-72
2021/09/02 02:12:02;;;;;;;11.27;8.87;;;15.90;99.90;;;;;;5059915;28;20865;-72
2021/09/02 02:14:31;;;;;;;9.40;8.33;;;15.90;99.90;;;;;;5059439;28;20455;-72
2021/09/02 02:16:58;;;;;;;10.53;9.43;;;15.90;99.90;;;;;;5059098;28;20455;-72
2021/09/02 02:19:26;;;;;;;10.37;8.67;;;15.90;99.90;;;;;;5057240;28;20513;-72
2021/09/02 02:21:54;;;;;;;9.73;8.73;;;15.80;99.90;;;;;;5057567;28;20466;-72
2021/09/02 02:24:21;;;;;;;14.13;9.60;;;15.80;99.90;;;;;;5057904;28;20826;-72
2021/09/02 02:26:48;;;;;;;10.17;9.00;;;15.80;99.90;;;;;;5057847;28;20938;-72
2021/09/02 02:29:17;;;;;;;11.20;8.93;;;15.70;99.90;;;;;;5058324;28;20485;-72
2021/09/02 02:31:47;;;;;;;11.47;8.70;;;15.70;99.90;;;;;;5058133;28;20474;-72
2021/09/02 02:34:18;;;;;;;19.80;9.57;;;15.70;99.90;;;;;;5057721;28;20513;-72
2021/09/02 02:36:46;;;;;;;11.80;8.60;;;15.60;99.90;;;;;;5058043;28;20443;-71
2021/09/02 02:39:13;;;;;;;9.50;8.50;;;15.60;99.90;;;;;;5057923;28;20468;-72
2021/09/02 02:41:39;;;;;;;9.97;8.67;;;15.50;99.90;;;;;;5057816;28;20451;-72
2021/09/02 02:44:07;;;;;;;11.27;9.37;;;15.50;99.90;;;;;;5056885;28;20498;-72
2021/09/02 02:46:35;;;;;;;12.93;9.40;;;15.50;99.90;;;;;;5057064;28;20466;-72
2021/09/02 02:49:05;;;;;;;9.77;8.20;;;15.50;99.90;;;;;;5056348;28;20814;-72
2021/09/02 02:51:31;;;;;;;12.43;9.13;;;15.40;99.90;;;;;;5056938;28;20787;-72
2021/09/02 02:53:59;;;;;;;9.03;8.00;;;15.40;99.90;;;;;;5056889;28;20470;-72
2021/09/02 02:56:26;;;;;;;21.00;10.33;;;15.40;99.90;;;;;;5056941;28;20801;-72
2021/09/02 02:58:55;;;;;;;10.53;9.43;;;15.40;99.90;;;;;;5056624;28;20459;-72
2021/09/02 03:01:21;;;;;;;9.93;8.60;;;15.50;99.90;;;;;;5059817;28;20455;-72
2021/09/02 03:03:49;;;;;;;9.47;8.40;;;15.40;99.90;;;;;;5058951;28;20808;-72
2021/09/02 03:06:17;;;;;;;9.73;8.83;;;15.40;99.90;;;;;;5057101;28;20466;-72
2021/09/02 03:08:45;;;;;;;11.37;9.80;;;15.40;99.90;;;;;;5058325;28;20479;-72
2021/09/02 03:11:12;;;;;;;12.37;8.37;;;15.40;99.90;;;;;;5058065;28;20581;-72
2021/09/02 03:13:41;;;;;;;9.77;8.77;;;15.40;99.90;;;;;;5057821;28;20517;-72
2021/09/02 03:16:13;;;;;;;10.73;8.67;;;15.40;99.90;;;;;;5057906;28;20490;-72
2021/09/02 03:18:40;;;;;;;9.63;8.13;;;15.40;99.90;;;;;;5059729;28;20449;-72
2021/09/02 03:21:07;;;;;;;16.13;9.07;;;15.40;99.90;;;;;;5063585;28;20463;-72
2021/09/02 03:23:36;;;;;;;10.40;8.90;;;15.40;99.90;;;;;;5066293;28;20455;-72
2021/09/02 03:26:05;;;;;;;8.97;8.07;;;15.40;99.90;;;;;;5065632;28;20454;-72
2021/09/02 03:28:31;;;;;;;11.83;9.00;;;15.40;99.90;;;;;;5064798;28;20475;-72
2021/09/02 03:31:00;;;;;;;10.67;9.00;;;15.40;99.90;;;;;;5065750;28;20474;-72
2021/09/02 03:33:26;;;;;;;11.97;8.07;;;15.40;99.90;;;;;;5064530;28;20462;-72
2021/09/02 03:35:54;;;;;;;9.50;8.50;;;15.40;99.90;;;;;;5064926;28;20455;-72
2021/09/02 03:38:21;;;;;;;10.90;8.87;;;15.40;99.90;;;;;;5065929;28;20485;-72
2021/09/02 03:40:51;;;;;;;10.60;9.10;;;15.40;99.90;;;;;;5065700;28;20455;-72
2021/09/02 03:43:20;;;;;;;10.80;9.20;;;15.40;99.90;;;;;;5062464;28;20491;-73
2021/09/02 03:45:49;;;;;;;12.80;9.30;;;15.40;99.90;;;;;;5058165;28;20493;-74
2021/09/02 03:48:17;;;;;;;9.90;8.47;;;15.40;99.90;;;;;;5058191;28;20483;-73
2021/09/02 03:50:45;;;;;;;10.67;8.97;;;15.40;99.90;;;;;;5058018;28;20469;-73
2021/09/02 03:53:13;;;;;;;8.67;7.77;;;15.50;99.90;;;;;;5058885;28;20458;-73
2021/09/02 03:55:40;;;;;;;13.80;9.00;;;15.50;99.90;;;;;;5058528;28;20455;-73
2021/09/02 03:58:08;;;;;;;11.23;8.40;;;15.40;99.90;;;;;;5059271;28;20455;-73
2021/09/02 04:00:35;;;;;;;13.30;9.53;;;15.40;99.90;;;;;;5059215;28;20466;-72
2021/09/02 04:03:04;;;;;;;11.23;9.97;;;15.30;99.90;;;;;;5059414;28;20455;-73
2021/09/02 04:05:30;;;;;;;9.40;8.23;;;15.30;99.90;;;;;;5058966;28;20455;-73
2021/09/02 04:07:59;;;;;;;14.07;9.33;;;15.30;99.90;;;;;;5061544;28;20479;-73
2021/09/02 04:10:27;;;;;;;11.10;9.40;;;15.30;99.90;;;;;;5061077;28;20463;-72
2021/09/02 04:12:54;;;;;;;17.00;9.70;;;15.20;99.90;;;;;;5061180;28;20470;-74
2021/09/02 04:15:23;;;;;;;13.70;9.10;;;15.20;99.90;;;;;;5061831;28;20460;-73
2021/09/02 04:17:50;;;;;;;12.47;10.10;;;15.20;99.90;;;;;;5060876;28;20466;-74
2021/09/02 04:20:17;;;;;;;12.27;9.30;;;15.10;99.90;;;;;;5061109;28;20911;-73
2021/09/02 04:22:44;;;;;;;11.70;9.60;;;15.10;99.90;;;;;;5061353;28;20459;-73
2021/09/02 04:25:11;;;;;;;14.40;9.03;;;15.00;99.90;;;;;;5061403;28;20798;-73
2021/09/02 04:27:39;;;;;;;13.33;9.33;;;15.00;99.90;;;;;;5061441;28;20539;-73
2021/09/02 04:30:07;;;;;;;10.67;9.53;;;15.00;99.90;;;;;;5061335;28;20470;-73
2021/09/02 04:32:36;;;;;;;10.27;8.50;;;15.00;99.90;;;;;;5060350;28;21015;-73
2021/09/02 04:35:03;;;;;;;13.20;9.97;;;15.00;99.90;;;;;;5059548;28;20459;-73
2021/09/02 04:37:30;;;;;;;12.60;8.90;;;15.00;99.90;;;;;;5057645;28;20783;-73
2021/09/02 04:39:58;;;;;;;12.63;9.40;;;15.00;99.90;;;;;;5056855;28;20487;-74
2021/09/02 04:42:26;;;;;;;12.30;9.13;;;15.00;99.90;;;;;;5057084;28;20455;-73
2021/09/02 04:44:54;;;;;;;12.97;9.23;;;14.90;99.90;;;;;;5057278;28;20451;-73
2021/09/02 04:47:22;;;;;;;12.97;10.00;;;14.90;99.90;;;;;;5057381;28;20466;-74
2021/09/02 04:49:51;;;;;;;12.93;8.60;;;14.90;99.90;;;;;;5056302;28;20485;-73
2021/09/02 04:52:18;;;;;;;13.13;9.97;;;14.90;99.90;;;;;;5058553;28;20470;-73
2021/09/02 04:54:46;;;;;;;10.97;9.40;;;14.90;99.90;;;;;;5060699;28;20573;-74
2021/09/02 04:57:13;;;;;;;11.47;9.57;;;14.90;99.90;;;;;;5060910;28;20493;-74
2021/09/02 04:59:44;;;;;;;15.77;9.73;;;14.80;99.90;;;;;;5058977;28;20499;-74
2021/09/02 05:02:12;;;;;;;11.47;9.23;;;14.90;99.90;;;;;;5056612;28;20450;-74
2021/09/02 05:04:39;;;;;;;11.00;8.93;;;14.80;99.90;;;;;;5057625;28;20470;-74
2021/09/02 05:07:07;;;;;;;12.47;9.97;;;14.90;99.90;;;;;;5057393;28;20917;-74
2021/09/02 05:09:35;;;;;;;11.77;8.90;;;14.90;99.90;;;;;;5057026;28;20509;-74
2021/09/02 05:12:03;;;;;;;13.90;9.70;;;14.90;99.90;;;;;;5057652;28;20922;-73
2021/09/02 05:14:32;;;;;;;11.10;9.37;;;14.90;99.90;;;;;;5056859;28;20470;-74
2021/09/02 05:16:59;;;;;;;13.43;9.27;;;14.90;99.90;;;;;;5057107;28;20455;-73
2021/09/02 05:19:29;;;;;;;10.57;9.17;;;15.00;99.90;;;;;;5056335;28;20459;-74
2021/09/02 05:22:00;;;;;;;11.20;9.07;;;14.90;99.90;;;;;;5057045;28;20455;-74
2021/09/02 05:24:28;;;;;;;12.03;10.40;;;15.00;99.90;;;;;;5056845;28;20439;-74
2021/09/02 05:26:56;;;;;;;14.97;9.53;;;15.00;99.90;;;;;;5055597;28;20466;-73
2021/09/02 05:29:24;;;;;;;13.10;10.40;;;15.00;99.90;;;;;;5055697;28;20541;-73
2021/09/02 05:31:51;;;;;;;12.67;9.77;;;15.00;99.90;;;;;;5055367;28;20529;-73
2021/09/02 05:34:19;;;;;;;13.17;9.37;;;15.00;99.90;;;;;;5055625;28;20848;-73
2021/09/02 05:36:47;;;;;;;12.00;10.10;;;15.10;99.90;;;;;;5055577;28;20463;-73
2021/09/02 05:39:15;;;;;;;11.13;9.23;;;15.10;99.90;;;;;;5055389;28;20832;-73
2021/09/02 05:41:44;;;;;;;23.43;17.10;;;15.10;99.90;;;;;;5055255;28;20469;-73
2021/09/02 05:44:12;;;;;;;14.60;10.70;;;15.20;99.90;;;;;;5053679;28;20501;-73
2021/09/02 05:46:40;;;;;;;17.00;10.70;;;15.30;99.90;;;;;;5055590;28;20478;-73
2021/09/02 05:49:09;;;;;;;13.27;10.23;;;15.30;99.90;;;;;;5054491;28;20479;-73
2021/09/02 05:51:37;;;;;;;14.20;11.17;;;15.30;99.90;;;;;;5055304;28;20459;-73
2021/09/02 05:54:05;;;;;;;17.80;10.73;;;15.30;99.90;;;;;;5054903;28;20455;-73
2021/09/02 05:56:34;;;;;;;14.10;10.80;;;15.40;99.90;;;;;;5054656;28;20454;-73
2021/09/02 05:59:03;;;;;;;13.20;9.93;;;15.40;99.90;;;;;;5054792;28;20455;-73
2021/09/02 06:01:30;;;;;;;16.03;11.00;;;15.40;99.90;;;;;;5055317;28;20463;-73
2021/09/02 06:03:58;;;;;;;13.10;10.13;;;15.40;99.90;;;;;;5055577;28;20521;-73
2021/09/02 06:06:26;;;;;;;11.60;9.87;;;15.40;99.90;;;;;;5056012;28;20478;-73
2021/09/02 06:08:53;;;;;;;13.47;9.83;;;15.40;99.90;;;;;;5056584;28;20562;-73
2021/09/02 06:11:21;;;;;;;13.67;9.97;;;15.40;99.90;;;;;;5055816;28;20470;-72
2021/09/02 06:13:48;;;;;;;12.10;9.20;;;15.40;99.90;;;;;;5056181;28;20470;-73
2021/09/02 06:16:17;;;;;;;13.03;9.73;;;15.50;99.90;;;;;;5056117;28;20917;-73
2021/09/02 06:18:44;;;;;;;15.53;9.40;;;15.60;99.90;;;;;;5056582;28;20455;-73
2021/09/02 06:21:14;;;;;;;14.33;11.30;;;15.70;99.90;;;;;;5057576;28;20496;-73
2021/09/02 06:23:42;;;;;;;10.77;9.67;;;15.70;99.90;;;;;;5056489;28;20459;-73
2021/09/02 06:26:10;;;;;;;14.90;9.90;;;15.80;99.90;;;;;;5058017;28;20458;-73
2021/09/02 06:28:37;;;;;;;13.17;10.43;;;15.80;99.90;;;;;;5057684;28;20475;-73
2021/09/02 06:31:05;;;;;;;13.13;10.20;;;15.90;99.90;;;;;;5057579;28;20459;-73
2021/09/02 06:33:35;;;;;;;14.70;10.00;;;15.90;99.90;;;;;;5056822;28;20466;-73
2021/09/02 06:36:03;;;;;;;13.40;10.73;;;16.00;99.90;;;;;;5056948;28;20466;-73
2021/09/02 06:38:31;;;;;;;16.47;12.67;;;16.10;99.90;;;;;;5057500;28;20573;-72
2021/09/02 06:40:58;;;;;;;17.60;12.60;;;16.10;99.90;;;;;;5057680;28;20516;-73
2021/09/02 06:43:27;;;;;;;15.47;12.07;;;16.20;99.90;;;;;;5057350;28;20478;-73
2021/09/02 06:45:53;;;;;;;17.77;10.67;;;16.20;99.90;;;;;;5058082;28;20513;-73
2021/09/02 06:48:21;;;;;;;14.57;10.60;;;16.20;99.90;;;;;;5057260;28;20455;-73
2021/09/02 06:50:51;;;;;;;18.20;10.73;;;16.30;99.90;;;;;;5057581;28;20477;-73
2021/09/02 06:53:17;;;;;;;14.00;9.80;;;16.40;99.90;;;;;;5057320;28;20466;-73
2021/09/02 06:55:45;;;;;;;14.57;10.03;;;16.50;99.90;;;;;;5059925;28;20454;-73
2021/09/02 06:58:12;;;;;;;12.70;9.43;;;16.60;99.90;;;;;;5062331;28;20459;-72
2021/09/02 07:00:39;;;;;;;14.20;9.90;;;16.60;99.90;;;;;;5064416;28;20455;-72
2021/09/02 07:03:07;;;;;;;13.60;9.57;;;16.70;99.90;;;;;;5064804;28;20451;-72
2021/09/02 07:05:35;;;;;;;17.90;10.40;;;16.80;99.90;;;;;;5065112;28;20467;-74
2021/09/02 07:08:05;;;;;;;12.90;10.50;;;16.80;99.90;;;;;;5066472;28;20455;-72
2021/09/02 07:10:31;;;;;;;14.33;10.93;;;16.80;99.90;;;;;;5066213;28;20479;-74
2021/09/02 07:12:59;;;;;;;14.17;9.93;;;16.80;99.90;;;;;;5067559;28;20459;-73
2021/09/02 07:15:27;;;;;;;11.67;10.10;;;16.80;99.90;;;;;;5068757;28;20455;-73
2021/09/02 07:17:55;;;;;;;10.37;9.17;;;16.80;99.90;;;;;;5067588;28;20837;-73
2021/09/02 07:20:23;;;;;;;11.33;9.60;;;16.80;99.90;;;;;;5066969;28;20454;-72
2021/09/02 07:22:51;;;;;;;13.47;9.30;;;16.80;99.90;;;;;;5066862;28;20451;-73
2021/09/02 07:25:19;;;;;;;14.07;8.63;;;16.90;99.90;;;;;;5067170;28;20451;-73
2021/09/02 07:27:46;;;;;;;14.50;8.53;;;17.00;99.90;;;;;;5067475;28;20459;-73
2021/09/02 07:30:13;;;;;;;12.30;9.30;;;17.10;99.90;;;;;;5066895;28;20576;-74
2021/09/02 07:32:41;;;;;;;11.87;8.33;;;17.20;99.90;;;;;;5065667;28;20465;-72
2021/09/02 07:35:11;;;;;;;17.87;9.20;;;17.20;99.90;;;;;;5060684;28;20497;-73
2021/09/02 07:37:37;;;;;;;13.50;10.07;;;17.20;99.90;;;;;;5059172;28;20455;-72
2021/09/02 07:40:07;;;;;;;13.73;9.00;;;17.10;99.90;;;;;;5058901;28;20450;-73
2021/09/02 07:42:35;;;;;;;12.33;9.23;;;17.10;99.90;;;;;;5058092;28;20923;-73
2021/09/02 07:45:01;;;;;;;11.53;9.40;;;17.20;99.90;;;;;;5058046;28;20447;-74
2021/09/02 07:47:30;;;;;;;12.30;11.00;;;17.10;99.90;;;;;;5057719;28;20762;-73
2021/09/02 07:50:00;;;;;;;11.90;10.20;;;17.20;99.90;;;;;;5057330;28;20474;-73
2021/09/02 07:52:27;;;;;;;16.27;11.67;;;17.20;99.90;;;;;;5057575;28;20973;-73
2021/09/02 07:54:54;;;;;;;18.70;12.50;;;17.10;99.90;;;;;;5057676;28;20469;-73
2021/09/02 07:57:21;;;;;;;16.23;12.37;;;17.10;99.90;;;;;;5057485;28;20455;-73
2021/09/02 07:59:50;;;;;;;16.93;12.80;;;17.10;99.90;;;;;;5057091;28;20459;-73
2021/09/02 08:02:20;;;;;;;15.33;12.23;;;17.10;99.90;;;;;;5056930;28;20458;-73
2021/09/02 08:04:48;;;;;;;13.93;10.03;;;17.10;99.90;;;;;;5057474;28;20919;-73
2021/09/02 08:07:16;;;;;;;22.93;11.27;;;17.10;99.90;;;;;;5056817;28;20466;-74
2021/09/02 08:09:44;;;;;;;16.40;12.50;;;17.10;99.90;;;;;;5056884;28;20483;-73
2021/09/02 08:12:13;;;;;;;13.60;11.23;;;17.20;99.90;;;;;;5056886;28;20516;-73
2021/09/02 08:14:40;;;;;;;13.63;12.20;;;17.20;99.90;;;;;;5056935;28;20455;-73
2021/09/02 08:17:08;;;;;;;13.23;10.87;;;17.10;99.90;;;;;;5056889;28;20517;-73
2021/09/02 08:19:35;;;;;;;11.60;10.40;;;17.20;99.90;;;;;;5056896;28;20546;-73
2021/09/02 08:22:03;;;;;;;14.17;10.33;;;17.20;99.90;;;;;;5057130;28;20470;-74
2021/09/02 08:24:31;;;;;;;10.43;9.20;;;17.20;99.90;;;;;;5056648;28;20465;-73
2021/09/02 08:26:59;;;;;;;11.47;9.63;;;17.30;99.90;;;;;;5056913;28;20463;-73
2021/09/02 08:29:27;;;;;;;10.30;8.87;;;17.40;99.90;;;;;;5056768;28;20478;-73
2021/09/02 08:31:54;;;;;;;10.03;9.03;;;17.40;99.90;;;;;;5056610;28;20467;-73
2021/09/02 08:34:26;;;;;;;10.40;9.27;;;17.60;99.90;;;;;;5056976;28;20459;-73
2021/09/02 08:36:53;;;;;;;14.67;9.87;;;17.70;99.90;;;;;;5056836;28;20451;-73
2021/09/02 08:39:21;;;;;;;10.80;9.70;;;17.80;99.90;;;;;;5056548;28;20459;-73
2021/09/02 08:41:49;;;;;;;11.40;8.70;;;17.90;99.90;;;;;;5056887;28;20725;-74
2021/09/02 08:44:18;;;;;;;12.40;9.50;;;17.80;99.90;;;;;;5055890;28;20483;-73
2021/09/02 08:46:45;;;;;;;12.93;9.40;;;17.60;99.90;;;;;;5056058;28;20454;-74
2021/09/02 08:49:22;;;;;;;10.57;9.17;;;17.50;99.90;;;;;;5055999;28;20491;-73
2021/09/02 08:51:52;;;;;;;10.47;9.03;;;17.30;99.90;;;;;;5056801;28;20435;-73
2021/09/02 08:54:20;;;;;;;10.27;9.27;;;17.20;99.90;;;;;;5056517;28;20439;-73
2021/09/02 08:56:48;;;;;;;9.10;8.17;;;17.10;99.90;;;;;;5056528;28;20470;-73
2021/09/02 08:59:16;;;;;;;9.67;8.67;;;16.90;99.90;;;;;;5055999;28;20455;-73
2021/09/02 09:01:48;;;;;;;9.40;8.50;;;16.90;99.90;;;;;;5056667;28;20463;-74
2021/09/02 09:04:17;;;;;;;9.40;8.50;;;16.90;99.90;;;;;;5056078;28;20769;-74
2021/09/02 09:06:44;;;;;;;10.97;9.87;;;16.80;99.90;;;;;;5055986;28;20546;-73
2021/09/02 09:09:15;;;;;;;10.73;9.63;;;16.80;99.90;;;;;;5055364;28;20470;-74
2021/09/02 09:11:48;;;;;;;9.10;8.30;;;16.70;99.90;;;;;;5055642;28;20443;-74
2021/09/02 09:14:18;;;;;;;11.07;8.97;;;16.70;99.90;;;;;;5055860;28;20787;-73
2021/09/02 09:16:47;;;;;;;8.30;7.50;;;16.80;99.90;;;;;;5055652;28;20436;-72
2021/09/02 09:19:38;;;;;;;9.53;8.63;;;16.80;99.90;;;;;;5054431;28;20467;-74
2021/09/02 09:22:11;;;;;;;8.43;7.67;;;16.90;99.90;;;;;;5055896;28;20443;-72
2021/09/02 09:24:49;;;;;;;8.53;7.73;;;16.80;99.90;;;;;;5055880;28;20753;-73
2021/09/02 09:27:19;;;;;;;9.17;8.17;;;16.70;99.90;;;;;;5055672;28;20442;-73
2021/09/02 09:30:03;;;;;;;7.37;6.67;;;16.60;99.90;;;;;;5055801;28;20490;-73
2021/09/02 09:32:38;;;;;;;8.77;7.93;;;16.60;99.90;;;;;;5055271;28;20455;-72
2021/09/02 09:35:06;;;;;;;11.03;9.30;;;16.70;99.90;;;;;;5055501;28;20475;-73
2021/09/02 09:37:35;;;;;;;9.97;9.07;;;16.70;99.90;;;;;;5055355;28;20459;-72
2021/09/02 09:40:15;;;;;;;9.70;8.77;;;16.70;99.90;;;;;;5092688;27;20538;-73
2021/09/02 09:43:02;;;;;;;9.47;8.37;;;16.70;99.90;;;;;;5092170;28;20846;-72
2021/09/02 09:45:50;;;;;;;9.85;8.85;;;16.60;99.90;;;;;;5092172;28;20434;-73
2021/09/02 09:48:47;;;;;;;14.60;9.10;;;16.80;99.90;;;;;;5091802;28;20190;-73
2021/09/02 09:51:17;;;;;;;10.00;8.87;;;17.00;99.90;;;;;;5049858;28;20458;-73
2021/09/02 09:53:47;;;;;;;9.53;8.33;;;17.20;99.90;;;;;;5083393;28;20445;-73
2021/09/02 09:56:19;;;;;;;8.00;7.20;;;17.40;99.90;;;;;;5091959;28;20442;-73
2021/09/02 09:58:48;;;;;;;10.37;7.53;;;17.60;99.90;;;;;;5095378;28;20461;-72
2021/09/02 10:01:15;;;;;;;8.33;7.47;;;17.80;99.90;;;;;;5096052;28;20902;-71
2021/09/02 10:03:51;;;;;;;8.03;7.23;;;17.90;99.90;;;;;;5099274;28;20457;-71
2021/09/02 10:06:23;;;;;;;16.00;8.13;;;18.00;99.90;;;;;;5099956;28;20442;-71
2021/09/02 10:08:52;;;;;;;9.10;7.33;;;18.20;99.90;;;;;;5098466;28;20434;-72
2021/09/02 10:11:23;;;;;;;9.43;8.20;;;18.40;99.90;;;;;;5097838;28;20457;-71
2021/09/02 10:13:51;;;;;;;7.50;6.80;;;18.40;99.90;;;;;;5099567;28;20454;-72
2021/09/02 10:16:21;;;;;;;8.70;7.87;;;18.40;99.90;;;;;;5098427;28;20483;-72
2021/09/02 10:18:50;;;;;;;7.77;7.07;;;18.30;99.90;;;;;;5098344;28;20505;-72
2021/09/02 10:21:22;;;;;;;8.10;7.30;;;18.30;99.90;;;;;;5097768;28;20454;-72
2021/09/02 10:23:50;;;;;;;8.17;7.37;;;18.30;99.90;;;;;;5096858;28;20188;-73
2021/09/02 10:26:35;;;;;;;7.38;6.68;;;18.10;99.90;;;;;;5095395;28;20506;-72
2021/09/02 10:29:23;;;;;;;9.40;7.93;;;17.90;99.90;;;;;;5095294;28;20207;-73
2021/09/02 10:31:50;;;;;;;8.20;7.30;;;18.00;99.90;;;;;;5096056;28;20468;-73
2021/09/02 10:34:27;;;;;;;10.80;8.17;;;18.00;99.90;;;;;;5095448;28;20464;-72
2021/09/02 10:36:55;;;;;;;9.70;8.40;;;18.00;99.90;;;;;;5092362;28;20520;-73
2021/09/02 10:39:47;;;;;;;9.07;8.20;;;18.20;99.90;;;;;;5094294;28;20515;-72
2021/09/02 10:42:44;;;;;;;8.93;7.83;;;18.30;99.90;;;;;;5084956;28;20461;-72
2021/09/02 10:45:35;;;;;;;8.70;7.80;;;18.40;99.90;;;;;;5094672;28;20534;-71
2021/09/02 10:48:06;;;;;;;9.53;8.53;;;18.60;99.90;;;;;;5093109;28;20465;-71
2021/09/02 10:50:40;;;;;;;8.23;7.43;;;18.80;99.90;;;;;;5084990;28;20453;-72
2021/09/02 10:53:12;;;;;;;9.77;8.33;;;19.00;99.90;;;;;;5080801;28;20439;-72
2021/09/02 10:55:41;;;;;;;8.60;7.37;;;19.20;99.90;;;;;;5079846;28;20462;-72
2021/09/02 10:58:12;;;;;;;8.37;6.97;;;19.30;99.90;;;;;;5080327;28;20473;-72
2021/09/02 11:00:40;;;;;;;8.93;8.00;;;19.50;99.90;;;;;;5080490;28;20512;-72
2021/09/02 11:03:15;;;;;;;8.73;7.73;;;19.70;99.90;;;;;;5079420;28;20454;-72
2021/09/02 11:05:49;;;;;;;9.33;8.43;;;19.70;99.90;;;;;;5082298;28;20458;-72
2021/09/02 11:08:31;;;;;;;8.27;7.13;;;19.80;99.90;;;;;;5078779;28;20890;-72
2021/09/02 11:11:09;;;;;;;8.03;7.30;;;19.90;99.90;;;;;;5081185;28;20447;-72
2021/09/02 11:13:38;;;;;;;10.90;8.30;;;20.10;99.90;;;;;;5084538;28;20549;-72
2021/09/02 11:16:09;;;;;;;7.23;6.40;;;20.30;99.90;;;;;;5083732;28;20466;-72
2021/09/02 11:18:44;;;;;;;8.20;7.40;;;20.30;99.90;;;;;;5084439;28;20869;-72
2021/09/02 11:21:14;;;;;;;11.70;6.83;;;20.30;99.90;;;;;;5081118;28;20465;-72
2021/09/02 11:23:45;;;;;;;9.87;7.13;;;20.30;99.90;;;;;;5082135;28;20784;-72
2021/09/02 11:26:12;;;;;;;9.03;8.00;;;20.40;99.90;;;;;;5082989;28;20529;-73
2021/09/02 11:28:50;;;;;;;8.93;7.20;;;20.50;99.90;;;;;;5082891;28;20508;-72
2021/09/02 11:31:18;;;;;;;9.10;6.93;;;20.40;99.90;;;;;;5081706;28;20455;-72
2021/09/02 11:33:47;;;;;;;11.03;7.00;;;20.70;99.90;;;;;;5081185;28;20211;-73
2021/09/02 11:36:16;;;;;;;15.97;7.40;;;21.20;99.90;;;;;;5082082;28;20474;-73
2021/09/02 11:38:45;;;;;;;9.47;6.87;;;21.40;99.90;;;;;;5079070;28;20962;-73
2021/09/02 11:41:20;;;;;;;7.93;7.18;;;21.40;99.90;;;;;;5081049;28;20462;-73
2021/09/02 11:43:47;;;;;;;7.53;6.73;;;21.50;99.90;;;;;;5080139;28;20269;-74
2021/09/02 11:46:16;;;;;;;7.60;6.03;;;21.60;99.90;;;;;;5079145;28;20461;-73
2021/09/02 11:48:52;;;;;;;8.50;6.93;;;21.90;99.90;;;;;;5080169;28;20450;-73
2021/09/02 11:51:25;;;;;;;6.77;6.17;;;22.40;99.90;;;;;;5080212;28;20449;-74
2021/09/02 11:54:04;;;;;;;10.00;6.67;;;23.20;99.90;;;;;;5085323;28;20442;-71
2021/09/02 11:56:33;;;;;;;6.87;6.00;;;24.00;99.90;;;;;;5086596;28;20453;-73
2021/09/02 11:59:02;;;;;;;6.60;5.20;;;24.90;99.90;;;;;;5088982;28;20957;-74
2021/09/02 12:01:33;;;;;;;7.27;5.30;;;25.40;99.90;;;;;;5086782;28;20454;-71
2021/09/02 12:04:01;;;;;;;6.83;5.30;;;25.90;99.90;;;;;;5088857;28;20439;-71
2021/09/02 12:06:30;;;;;;;5.23;4.73;;;26.40;99.90;;;;;;5088458;28;20455;-72
2021/09/02 12:09:01;;;;;;;6.07;5.00;;;26.60;99.90;;;;;;5087800;28;20465;-72
2021/09/02 12:11:29;;;;;;;6.97;5.40;;;27.10;99.90;;;;;;5087392;28;20454;-72
2021/09/02 12:13:57;;;;;;;6.33;5.40;;;27.50;99.90;;;;;;5087546;28;20808;-72
2021/09/02 12:16:33;;;;;;;7.10;5.30;;;27.80;99.90;;;;;;5086069;28;20533;-72
2021/09/02 12:19:01;;;;;;;6.23;5.10;;;28.40;84.60;;;;;;5083894;28;20462;-73
2021/09/02 12:21:31;;;;;;;7.07;5.47;;;28.90;51.00;;;;;;5083310;28;20545;-73
2021/09/02 12:24:01;;;;;;;5.63;5.13;;;29.20;33.50;;;;;;5082180;28;20454;-72
2021/09/02 12:26:48;;;;;;;5.73;5.23;;;29.50;16.20;;;;;;5081162;28;20501;-73
2021/09/02 12:29:17;;;;;;;5.40;4.90;;;29.40;7.50;;;;;;5083993;28;20442;-72
2021/09/02 12:31:48;;;;;;;5.07;4.60;;;29.60;1.00;;;;;;5084769;28;20464;-72
2021/09/02 12:34:22;;;;;;;8.17;5.03;;;29.30;1.00;;;;;;5084571;28;20446;-72
2021/09/02 12:37:05;;;;;;;8.77;5.60;;;28.90;1.00;;;;;;5081549;28;20871;-72
2021/09/02 12:39:35;;;;;;;6.77;5.63;;;28.30;1.00;;;;;;5075210;28;20493;-71
2021/09/02 12:42:05;;;;;;;9.27;5.45;;;27.80;1.00;;;;;;5075645;28;20917;-72
2021/09/02 12:44:35;;;;;;;9.00;6.07;;;26.90;1.00;;;;;;5075774;28;20551;-72
2021/09/02 12:47:11;;;;;;;6.80;5.30;;;26.80;1.00;;;;;;5075765;28;20199;-72
2021/09/02 12:49:44;;;;;;;6.47;4.93;;;27.20;1.00;;;;;;5075610;28;20450;-72
2021/09/02 12:52:22;;;;;;;5.17;4.63;;;27.60;1.00;;;;;;5075082;28;20586;-72